Time;durP1;ratioP1;P1;durP2;ratioP2;P2;SDS_P1;SDS_P2;PMS_P1;PMS_P2;Temp;Humidity;BMP_temperature;BMP_pressure;BME280_temperature;BME280_humidity;BME280_pressure;Samples;Min_cycle;Max_cycle;Signal;HPM_P1;HPM_P2
2021/06/15 00:02:25;;;;;;;18.38;11.48;;;;;;;20.25;61.99;101547.03;5096027;28;20043;-58
2021/06/15 00:04:52;;;;;;;17.67;10.88;;;;;;;20.15;62.45;101536.91;5096060;28;20477;-60
2021/06/15 00:07:19;;;;;;;19.13;11.23;;;;;;;20.14;62.59;101535.19;5094153;28;20066;-59
2021/06/15 00:09:46;;;;;;;27.02;12.45;;;;;;;20.04;63.27;101540.06;5092135;28;20397;-62
2021/06/15 00:12:13;;;;;;;18.88;12.88;;;;;;;19.87;63.75;101537.31;5091661;28;20047;-60
2021/06/15 00:14:39;;;;;;;24.73;12.65;;;;;;;19.74;64.41;101536.97;5090238;28;20513;-61
2021/06/15 00:17:06;;;;;;;26.73;11.68;;;;;;;19.76;64.02;101527.22;5088852;28;20051;-61
2021/06/15 00:19:32;;;;;;;20.58;11.95;;;;;;;19.79;63.85;101536.78;5087574;28;22516;-60
2021/06/15 00:21:59;;;;;;;19.00;11.68;;;;;;;19.76;64.07;101535.13;5090906;28;20413;-62
2021/06/15 00:24:27;;;;;;;22.77;12.68;;;;;;;19.80;64.08;101538.50;5090663;28;20110;-58
2021/06/15 00:26:53;;;;;;;22.65;12.57;;;;;;;19.81;64.06;101542.84;5089694;28;20052;-62
2021/06/15 00:29:20;;;;;;;20.13;12.90;;;;;;;19.77;64.48;101541.25;5089434;28;20047;-59
2021/06/15 00:31:46;;;;;;;25.50;13.40;;;;;;;19.71;64.64;101542.41;5098662;28;20055;-59
2021/06/15 00:34:13;;;;;;;19.45;12.85;;;;;;;19.64;65.04;101536.56;5090953;28;20050;-60
2021/06/15 00:36:39;;;;;;;23.17;13.82;;;;;;;19.56;65.28;101539.53;5088156;28;20040;-61
2021/06/15 00:39:06;;;;;;;24.63;12.65;;;;;;;19.56;65.29;101538.69;5090264;28;20059;-60
2021/06/15 00:41:33;;;;;;;21.33;14.32;;;;;;;19.53;65.54;101542.28;5089945;28;20044;-58
2021/06/15 00:44:00;;;;;;;23.17;13.90;;;;;;;19.40;66.10;101543.78;5088497;28;20497;-58
2021/06/15 00:46:26;;;;;;;22.60;13.20;;;;;;;19.27;66.65;101540.78;5089643;28;20093;-60
2021/06/15 00:48:53;;;;;;;22.33;13.65;;;;;;;19.21;67.02;101543.69;5086823;28;20436;-61
2021/06/15 00:51:19;;;;;;;23.00;14.35;;;;;;;19.14;67.29;101544.88;5092862;28;20081;-61
2021/06/15 00:53:46;;;;;;;23.27;15.23;;;;;;;19.05;67.77;101544.34;5088903;28;20047;-57
2021/06/15 00:56:12;;;;;;;23.65;14.48;;;;;;;19.04;67.63;101545.28;5089519;28;20043;-60
2021/06/15 00:58:40;;;;;;;26.45;14.30;;;;;;;19.15;67.28;101539.53;5088105;28;20437;-60
2021/06/15 01:01:07;;;;;;;25.30;15.10;;;;;;;19.18;67.46;101547.31;5089926;28;20451;-61
2021/06/15 01:03:35;;;;;;;22.95;14.30;;;;;;;19.20;67.26;101545.50;5087173;28;20101;-62
2021/06/15 01:06:09;;;;;;;22.10;14.02;;;;;;;19.23;67.44;101537.41;5094688;28;20051;-62
2021/06/15 01:08:42;;;;;;;23.15;13.82;;;;;;;19.26;67.16;101547.84;5086089;28;20051;-63
2021/06/15 01:11:18;;;;;;;29.58;14.48;;;;;;;19.29;67.11;101553.94;5085614;28;20142;-61
2021/06/15 01:14:03;;;;;;;27.70;15.43;;;;;;;19.27;67.35;101554.84;5089229;28;20048;-61
2021/06/15 01:16:36;;;;;;;24.13;16.50;;;;;;;19.17;67.57;101548.25;5091926;28;20085;-61
2021/06/15 01:19:13;;;;;;;21.15;15.02;;;;;;;19.05;68.34;101554.91;5088967;28;20043;-60
2021/06/15 01:21:49;;;;;;;24.52;15.13;;;;;;;19.03;68.22;101562.00;5088693;28;20082;-61
2021/06/15 01:24:29;;;;;;;21.88;14.93;;;;;;;19.01;68.54;101557.75;5099843;28;20515;-60
2021/06/15 01:27:40;;;;;;;24.95;16.08;;;;;;;19.02;68.61;101556.78;5094086;28;20051;-61
2021/06/15 01:30:10;;;;;;;25.08;16.17;;;;;;;18.99;68.84;101562.22;5086260;28;20067;-60
2021/06/15 01:32:38;;;;;;;28.60;16.25;;;;;;;18.98;68.86;101563.13;5093103;28;20052;-62
2021/06/15 01:35:08;;;;;;;31.48;17.02;;;;;;;18.89;69.34;101561.69;5090093;28;20597;-60
2021/06/15 01:37:39;;;;;;;23.75;16.10;;;;;;;18.85;69.41;101568.03;5085977;28;20051;-60
2021/06/15 01:40:13;;;;;;;28.02;16.73;;;;;;;18.74;69.95;101560.53;5090214;28;20039;-61
2021/06/15 01:42:44;;;;;;;27.87;17.40;;;;;;;18.64;70.51;101554.78;5089489;28;20044;-60
2021/06/15 01:45:14;;;;;;;32.45;18.40;;;;;;;18.60;70.73;101556.69;5089230;28;20074;-60
2021/06/15 01:47:47;;;;;;;26.13;16.60;;;;;;;18.63;70.72;101559.19;5090344;28;20110;-61
2021/06/15 01:50:17;;;;;;;25.95;18.08;;;;;;;18.57;70.87;101564.72;5088536;28;20047;-60
2021/06/15 01:52:44;;;;;;;28.25;18.15;;;;;;;18.54;71.05;101563.97;5090674;28;20056;-59
2021/06/15 01:55:11;;;;;;;29.42;18.98;;;;;;;18.47;71.34;101566.84;5093228;28;20048;-61
2021/06/15 01:57:38;;;;;;;27.02;18.27;;;;;;;18.36;72.01;101570.81;5093304;28;20098;-60
2021/06/15 02:00:12;;;;;;;27.48;18.88;;;;;;;18.31;72.30;101566.59;5091965;28;20048;-60
2021/06/15 02:02:40;;;;;;;29.13;19.67;;;;;;;18.17;73.06;101563.63;5091640;28;20505;-60
2021/06/15 02:05:08;;;;;;;31.48;19.85;;;;;;;18.21;73.11;101559.09;5097227;28;20059;-61
2021/06/15 02:07:39;;;;;;;29.27;18.50;;;;;;;18.22;72.86;101561.66;5097320;28;20043;-62
2021/06/15 02:10:09;;;;;;;28.13;19.58;;;;;;;18.02;73.68;101562.44;5092039;28;20047;-60
2021/06/15 02:12:40;;;;;;;34.00;21.08;;;;;;;18.00;73.65;101564.25;5088708;28;20447;-59
2021/06/15 02:15:10;;;;;;;28.90;19.63;;;;;;;17.91;74.30;101560.16;5093670;28;20055;-62
2021/06/15 02:17:40;;;;;;;28.48;20.50;;;;;;;17.81;74.86;101567.53;5094740;28;20047;-62
2021/06/15 02:20:10;;;;;;;27.17;19.58;;;;;;;17.84;74.65;101559.53;5089165;28;20048;-62
2021/06/15 02:22:37;;;;;;;29.15;19.65;;;;;;;17.82;74.91;101557.84;5091649;28;20051;-60
2021/06/15 02:25:05;;;;;;;29.60;20.50;;;;;;;17.76;75.07;101558.97;5097585;28;20105;-62
2021/06/15 02:27:32;;;;;;;29.52;18.80;;;;;;;17.79;75.02;101550.09;5092624;28;20055;-58
2021/06/15 02:30:00;;;;;;;29.35;19.55;;;;;;;17.69;75.31;101554.81;5093220;28;20516;-60
2021/06/15 02:32:32;;;;;;;33.97;20.90;;;;;;;17.68;75.34;101547.81;5097967;28;20044;-60
2021/06/15 02:35:01;;;;;;;32.03;21.15;;;;;;;17.68;75.38;101553.09;5087497;28;20417;-61
2021/06/15 02:37:33;;;;;;;34.65;21.08;;;;;;;17.56;76.11;101554.41;5092820;28;20044;-62
2021/06/15 02:40:01;;;;;;;29.20;19.00;;;;;;;17.59;75.82;101554.28;5090552;28;20054;-59
2021/06/15 02:42:29;;;;;;;29.65;20.00;;;;;;;17.59;75.76;101556.94;5089965;28;20052;-61
2021/06/15 02:44:59;;;;;;;34.40;21.20;;;;;;;17.54;75.88;101558.84;5086821;28;20493;-59
2021/06/15 02:47:27;;;;;;;31.98;20.33;;;;;;;17.45;76.16;101572.31;5088716;28;20044;-61
2021/06/15 02:49:58;;;;;;;27.92;19.83;;;;;;;17.48;76.32;101577.50;5090388;28;20059;-58
2021/06/15 02:52:36;;;;;;;34.53;20.35;;;;;;;17.47;76.34;101567.88;5094004;28;20473;-62
2021/06/15 02:55:06;;;;;;;30.50;21.50;;;;;;;17.47;76.29;101578.41;5090385;28;20056;-61
2021/06/15 02:57:33;;;;;;;31.77;21.38;;;;;;;17.33;77.00;101574.47;5091254;28;20052;-61
2021/06/15 02:59:59;;;;;;;28.30;19.75;;;;;;;17.29;77.29;101580.75;5090938;28;20509;-60
2021/06/15 03:02:26;;;;;;;26.40;18.63;;;;;;;17.27;76.99;101587.81;5087882;28;20055;-61
2021/06/15 03:04:53;;;;;;;30.05;19.52;;;;;;;17.21;77.32;101582.78;5087980;28;20508;-62
2021/06/15 03:07:21;;;;;;;29.38;18.90;;;;;;;17.21;77.10;101581.00;5100445;28;20052;-61
2021/06/15 03:09:47;;;;;;;25.83;17.02;;;;;;;17.20;77.10;101584.53;5091366;28;20501;-61
2021/06/15 03:12:17;;;;;;;27.27;18.85;;;;;;;17.19;77.14;101587.22;5091138;28;20062;-62
2021/06/15 03:14:46;;;;;;;26.17;17.27;;;;;;;17.14;77.17;101583.88;5090046;28;20064;-62
2021/06/15 03:17:13;;;;;;;37.33;18.55;;;;;;;17.11;77.29;101586.63;5092314;28;20397;-61
2021/06/15 03:19:45;;;;;;;24.05;16.70;;;;;;;17.05;77.24;101593.78;5088644;28;20147;-62
2021/06/15 03:22:16;;;;;;;22.40;15.85;;;;;;;17.07;77.20;101584.09;5090132;28;20070;-62
2021/06/15 03:24:51;;;;;;;28.45;16.33;;;;;;;17.15;76.83;101586.47;5090469;28;20516;-62
2021/06/15 03:27:22;;;;;;;26.02;16.30;;;;;;;17.06;77.25;101590.25;5095564;28;20040;-58
2021/06/15 03:29:49;;;;;;;24.67;16.15;;;;;;;16.90;77.80;101581.97;5088203;28;20048;-62
2021/06/15 03:32:17;;;;;;;26.15;16.17;;;;;;;16.98;77.39;101589.66;5090443;28;20686;-60
2021/06/15 03:34:47;;;;;;;22.73;15.57;;;;;;;17.01;77.12;101592.19;5091847;28;20040;-58
2021/06/15 03:37:19;;;;;;;25.23;15.88;;;;;;;16.99;77.42;101591.38;5090980;28;20051;-60
2021/06/15 03:39:48;;;;;;;24.45;15.40;;;;;;;17.00;77.30;101606.25;5090454;28;20425;-60
2021/06/15 03:42:20;;;;;;;21.50;15.27;;;;;;;17.10;77.10;101601.53;5091479;28;20112;-60
2021/06/15 03:44:51;;;;;;;25.85;15.57;;;;;;;17.08;77.02;101613.84;5090234;28;20581;-60
2021/06/15 03:47:19;;;;;;;23.38;15.55;;;;;;;17.08;77.06;101622.63;5093370;28;20048;-62
2021/06/15 03:49:47;;;;;;;21.75;13.35;;;;;;;17.17;76.79;101625.84;5090837;28;20052;-61
2021/06/15 03:52:14;;;;;;;24.63;14.05;;;;;;;17.31;76.16;101630.66;5100309;28;20508;-58
2021/06/15 03:54:43;;;;;;;27.33;14.43;;;;;;;17.32;75.80;101633.22;5094004;28;20052;-59
2021/06/15 03:57:11;;;;;;;24.50;15.63;;;;;;;17.29;76.04;101635.97;5097926;28;20101;-59
2021/06/15 03:59:38;;;;;;;20.77;13.93;;;;;;;17.34;75.53;101635.81;5081554;28;20048;-57
2021/06/15 04:02:07;;;;;;;20.25;12.63;;;;;;;17.33;75.76;101637.56;5089093;28;20072;-61
2021/06/15 04:04:36;;;;;;;22.83;13.55;;;;;;;17.32;75.54;101645.53;5089320;28;20052;-61
2021/06/15 04:07:06;;;;;;;18.70;12.70;;;;;;;17.33;75.55;101642.00;5091417;28;20051;-61
2021/06/15 04:09:36;;;;;;;22.50;12.50;;;;;;;17.40;75.25;101641.75;5090985;28;20468;-61
2021/06/15 04:12:03;;;;;;;21.45;13.25;;;;;;;17.50;74.89;101639.63;5090924;28;20123;-61
2021/06/15 04:14:32;;;;;;;20.77;12.18;;;;;;;17.50;74.82;101651.94;5095500;28;20444;-61
2021/06/15 04:17:01;;;;;;;18.38;11.68;;;;;;;17.54;74.67;101650.91;5090864;28;20137;-62
2021/06/15 04:19:31;;;;;;;18.80;11.98;;;;;;;17.64;74.23;101659.38;5089293;28;20082;-60
2021/06/15 04:22:00;;;;;;;18.40;11.93;;;;;;;17.70;73.95;101657.38;5089848;28;20043;-62
2021/06/15 04:24:28;;;;;;;22.55;12.52;;;;;;;17.75;74.07;101645.81;5095309;28;20067;-61
2021/06/15 04:26:58;;;;;;;26.42;12.73;;;;;;;17.78;74.48;101653.63;5088698;28;20094;-64
2021/06/15 04:29:25;;;;;;;24.95;13.07;;;;;;;17.82;73.83;101649.97;5092268;28;20050;-61
2021/06/15 04:31:57;;;;;;;19.00;12.52;;;;;;;17.82;73.74;101660.47;5087054;28;20417;-62
2021/06/15 04:34:26;;;;;;;24.50;11.85;;;;;;;17.88;73.42;101655.88;5082963;28;20040;-62
2021/06/15 04:36:57;;;;;;;19.95;11.90;;;;;;;17.93;73.13;101658.34;5085349;28;20051;-61
2021/06/15 04:39:26;;;;;;;18.40;12.07;;;;;;;17.90;73.12;101663.72;5092174;28;20048;-62
2021/06/15 04:42:00;;;;;;;20.90;11.57;;;;;;;17.92;73.05;101666.31;5084334;28;20044;-61
2021/06/15 04:44:29;;;;;;;23.80;11.80;;;;;;;17.90;73.37;101666.38;5091182;28;20071;-59
2021/06/15 04:47:01;;;;;;;19.90;11.38;;;;;;;17.89;73.00;101662.00;5088715;28;20434;-61
2021/06/15 04:49:31;;;;;;;19.45;11.38;;;;;;;17.93;72.49;101663.59;5087370;28;20502;-62
2021/06/15 04:52:00;;;;;;;18.75;11.57;;;;;;;17.97;72.26;101665.25;5091097;28;20405;-61
2021/06/15 04:54:37;;;;;;;16.33;10.80;;;;;;;17.74;72.46;101679.19;5090225;28;20052;-60
2021/06/15 04:57:08;;;;;;;19.05;11.25;;;;;;;17.70;72.60;101667.91;5088127;28;20425;-62
2021/06/15 04:59:36;;;;;;;19.38;11.05;;;;;;;17.68;72.18;101668.84;5086162;28;20055;-58
2021/06/15 05:02:05;;;;;;;18.70;11.13;;;;;;;17.68;73.13;101672.38;5087971;28;20044;-61
2021/06/15 05:04:35;;;;;;;16.85;9.55;;;;;;;17.90;71.99;101663.72;5085830;28;20044;-61
2021/06/15 05:07:03;;;;;;;19.35;9.60;;;;;;;18.03;71.51;101672.94;5089874;28;20490;-63
2021/06/15 05:09:33;;;;;;;16.50;9.73;;;;;;;18.14;70.97;101666.41;5094655;28;20051;-60
2021/06/15 05:12:01;;;;;;;17.90;10.30;;;;;;;18.40;69.79;101659.34;5087481;28;20051;-58
2021/06/15 05:14:28;;;;;;;13.98;9.60;;;;;;;18.54;69.28;101664.09;5089999;28;20483;-61
2021/06/15 05:16:56;;;;;;;19.17;9.38;;;;;;;18.63;68.80;101671.66;5087938;28;20059;-60
2021/06/15 05:19:24;;;;;;;17.52;9.48;;;;;;;18.61;68.91;101671.72;5089081;28;20449;-60
2021/06/15 05:21:55;;;;;;;15.73;8.80;;;;;;;18.81;68.18;101670.09;5092054;28;20050;-59
2021/06/15 05:24:32;;;;;;;14.02;8.77;;;;;;;18.90;67.69;101669.72;5091600;28;20051;-61
2021/06/15 05:26:59;;;;;;;17.48;10.55;;;;;;;19.07;67.17;101662.94;5090753;28;20059;-61
2021/06/15 05:29:25;;;;;;;14.98;9.00;;;;;;;19.37;66.88;101670.53;5093017;28;20513;-58
2021/06/15 05:31:52;;;;;;;16.88;9.48;;;;;;;19.39;66.13;101666.06;5087476;28;20455;-60
2021/06/15 05:34:18;;;;;;;15.23;8.75;;;;;;;19.16;66.53;101667.00;5095060;28;20072;-59
2021/06/15 05:36:46;;;;;;;14.27;8.57;;;;;;;19.22;66.60;101659.66;5094705;28;20047;-62
2021/06/15 05:39:13;;;;;;;15.63;9.18;;;;;;;19.53;65.14;101661.03;5090726;28;20138;-62
2021/06/15 05:41:39;;;;;;;19.67;9.75;;;;;;;19.86;64.61;101659.72;5089576;28;20055;-61
2021/06/15 05:44:06;;;;;;;17.58;9.07;;;;;;;20.23;63.06;101660.69;5085178;28;20058;-62
2021/06/15 05:46:32;;;;;;;16.90;8.57;;;;;;;20.60;61.27;101661.63;5090078;28;20044;-62
2021/06/15 05:48:58;;;;;;;15.55;8.82;;;;;;;20.65;60.81;101672.00;5091464;28;20056;-60
2021/06/15 05:51:25;;;;;;;17.52;7.88;;;;;;;20.92;60.14;101682.22;5092424;28;20442;-59
2021/06/15 05:53:53;;;;;;;14.88;8.48;;;;;;;21.09;59.93;101690.22;5092380;28;20052;-62
2021/06/15 05:56:19;;;;;;;13.23;7.72;;;;;;;20.85;59.21;101692.25;5090710;28;20502;-63
2021/06/15 05:58:45;;;;;;;13.55;8.52;;;;;;;20.55;60.50;101699.78;5088780;28;20055;-62
2021/06/15 06:01:12;;;;;;;13.68;8.02;;;;;;;20.71;60.29;101707.88;5092483;28;20047;-60
2021/06/15 06:03:44;;;;;;;12.50;7.32;;;;;;;20.12;61.39;101699.94;5091796;28;20054;-62
2021/06/15 06:08:56;;;;;;;10.43;6.93;;;;;;;20.37;60.71;101710.28;5090016;28;20055;-60
2021/06/15 06:11:23;;;;;;;12.52;7.95;;;;;;;20.33;60.59;101703.41;5092457;28;20048;-61
2021/06/15 06:13:53;;;;;;;10.38;7.00;;;;;;;20.78;59.92;101704.03;5084907;28;20498;-61
2021/06/15 06:16:19;;;;;;;14.13;7.35;;;;;;;20.63;59.61;101713.50;5082718;28;20044;-61
2021/06/15 06:18:46;;;;;;;18.20;7.45;;;;;;;20.62;59.10;101709.13;5084976;28;20052;-61
2021/06/15 06:21:13;;;;;;;13.27;7.53;;;;;;;20.67;58.83;101708.00;5092555;28;20040;-60
2021/06/15 06:23:40;;;;;;;16.38;8.00;;;;;;;20.81;58.38;101715.31;5091658;28;20048;-60
2021/06/15 06:26:08;;;;;;;13.57;7.72;;;;;;;20.81;58.47;101712.69;5092570;28;20047;-62
2021/06/15 06:28:34;;;;;;;12.13;8.30;;;;;;;20.96;58.49;101713.75;5088909;28;20105;-60
2021/06/15 06:31:00;;;;;;;14.90;7.75;;;;;;;21.15;57.61;101706.72;5091156;28;20077;-62
2021/06/15 06:33:27;;;;;;;13.05;7.47;;;;;;;21.08;58.48;101711.44;5091460;28;20097;-61
2021/06/15 06:35:53;;;;;;;14.50;7.95;;;;;;;20.78;58.30;101718.13;5088168;28;20059;-61
2021/06/15 06:38:20;;;;;;;14.18;7.97;;;;;;;20.69;58.84;101710.59;5086972;28;20082;-61
2021/06/15 06:40:47;;;;;;;13.40;7.38;;;;;;;20.91;58.54;101715.75;5091192;28;20059;-62
2021/06/15 06:43:14;;;;;;;15.02;7.70;;;;;;;21.05;57.24;101716.91;5090343;28;20476;-62
2021/06/15 06:45:41;;;;;;;11.07;7.60;;;;;;;20.86;57.84;101724.84;5092184;28;20048;-62
2021/06/15 06:48:08;;;;;;;10.48;7.13;;;;;;;21.04;57.67;101723.97;5086000;28;20052;-61
2021/06/15 06:50:35;;;;;;;14.77;8.50;;;;;;;20.90;57.28;101723.78;5091431;28;20143;-60
2021/06/15 06:53:01;;;;;;;13.65;7.30;;;;;;;21.09;57.46;101723.75;5087825;28;20048;-62
2021/06/15 06:55:29;;;;;;;14.05;7.65;;;;;;;21.25;56.79;101719.44;5083982;28;20044;-59
2021/06/15 06:57:55;;;;;;;14.40;7.97;;;;;;;21.34;56.27;101728.69;5081552;28;20555;-59
2021/06/15 07:00:23;;;;;;;13.40;7.97;;;;;;;;;;5091034;28;20092;-61
2021/06/15 07:02:49;;;;;;;12.07;7.30;;;;;;;21.78;54.54;101727.44;5085460;28;20044;-61
2021/06/15 07:05:16;;;;;;;10.95;5.82;;;;;;;22.01;54.28;101723.59;5091372;28;20501;-61
2021/06/15 07:07:43;;;;;;;13.88;6.53;;;;;;;21.88;54.13;101727.84;5093754;28;20051;-62
2021/06/15 07:10:10;;;;;;;15.30;6.70;;;;;;;21.94;53.58;101727.53;5090700;28;20052;-62
2021/06/15 07:12:37;;;;;;;14.13;6.75;;;;;;;21.78;54.54;101726.59;5089145;28;20035;-61
2021/06/15 07:15:05;;;;;;;13.23;6.75;;;;;;;21.75;54.57;101735.56;5090680;28;20074;-62
2021/06/15 07:17:32;;;;;;;14.25;6.72;;;;;;;21.82;54.52;101733.44;5087510;28;20074;-59
2021/06/15 07:19:59;;;;;;;14.93;7.28;;;;;;;21.79;54.62;101739.75;5086265;28;20044;-62
2021/06/15 07:22:25;;;;;;;14.05;7.32;;;;;;;21.56;55.52;101735.59;5087124;28;20070;-56
2021/06/15 07:24:52;;;;;;;13.88;6.93;;;;;;;21.30;56.29;101736.88;5086039;28;20128;-60
2021/06/15 07:27:18;;;;;;;12.05;6.70;;;;;;;21.28;57.04;101736.94;5090436;28;20055;-61
2021/06/15 07:29:45;;;;;;;14.40;7.35;;;;;;;21.22;56.71;101735.47;5090011;28;20067;-60
2021/06/15 07:32:11;;;;;;;14.32;7.40;;;;;;;21.09;56.97;101740.50;5090639;28;20036;-60
2021/06/15 07:34:39;;;;;;;13.88;8.27;;;;;;;21.05;57.17;101743.34;5089279;28;20052;-61
2021/06/15 07:37:05;;;;;;;12.18;8.32;;;;;;;21.11;57.25;101737.75;5090761;28;20467;-58
2021/06/15 07:39:32;;;;;;;13.52;7.82;;;;;;;21.24;57.54;101746.84;5089872;28;20044;-61
2021/06/15 07:41:59;;;;;;;12.02;7.70;;;;;;;21.06;57.59;101740.63;5082447;28;20067;-63
2021/06/15 07:44:25;;;;;;;12.95;7.82;;;;;;;21.10;57.62;101742.22;5088810;28;20177;-61
2021/06/15 07:46:53;;;;;;;17.15;7.43;;;;;;;21.06;57.62;101737.97;5087989;28;20056;-61
2021/06/15 07:49:20;;;;;;;13.50;7.40;;;;;;;21.12;57.42;101745.59;5089618;28;20055;-62
2021/06/15 07:51:47;;;;;;;17.48;8.45;;;;;;;21.02;58.17;101748.78;5089443;28;20050;-61
2021/06/15 07:54:14;;;;;;;16.77;9.02;;;;;;;21.16;57.69;101743.69;5089517;28;20055;-62
2021/06/15 07:56:40;;;;;;;15.15;9.45;;;;;;;21.19;57.44;101751.47;5085136;28;20048;-60
2021/06/15 07:59:07;;;;;;;11.40;6.82;;;;;;;21.31;57.39;101744.72;5083622;28;20044;-62
2021/06/15 08:01:33;;;;;;;15.10;8.25;;;;;;;21.19;57.88;101743.53;5086100;28;20410;-63
2021/06/15 08:04:00;;;;;;;19.13;8.65;;;;;;;21.37;57.34;101743.56;5086639;28;20048;-63
2021/06/15 08:06:26;;;;;;;13.70;8.55;;;;;;;21.67;55.96;101751.84;5091002;28;20075;-62
2021/06/15 08:08:54;;;;;;;11.95;8.13;;;;;;;21.89;55.89;101741.00;5089536;28;20054;-63
2021/06/15 08:11:21;;;;;;;14.85;7.60;;;;;;;21.74;56.32;101745.28;5093545;28;20052;-62
2021/06/15 08:13:47;;;;;;;12.20;7.13;;;;;;;21.75;56.30;101754.09;5087964;28;20052;-62
2021/06/15 08:16:14;;;;;;;18.33;8.95;;;;;;;21.73;56.61;101746.22;5085079;28;20071;-62
2021/06/15 08:18:40;;;;;;;17.50;7.55;;;;;;;21.62;56.81;101743.25;5083477;28;20055;-63
2021/06/15 08:21:07;;;;;;;14.20;8.35;;;;;;;21.68;57.45;101742.97;5085529;28;20059;-59
2021/06/15 08:23:33;;;;;;;21.30;7.88;;;;;;;21.83;57.41;101735.16;5095217;28;20519;-62
2021/06/15 08:26:01;;;;;;;12.82;7.85;;;;;;;21.80;57.33;101735.34;5088619;28;20513;-62
2021/06/15 08:28:27;;;;;;;19.00;8.15;;;;;;;21.63;57.53;101739.66;5089272;28;20497;-57
2021/06/15 08:30:54;;;;;;;16.20;8.15;;;;;;;21.53;57.39;101741.03;5085837;28;20124;-63
2021/06/15 08:33:20;;;;;;;15.18;8.40;;;;;;;21.33;58.12;101742.03;5087872;28;20448;-63
2021/06/15 08:35:47;;;;;;;16.27;8.60;;;;;;;21.13;58.41;101733.25;5091877;28;20048;-62
2021/06/15 08:38:15;;;;;;;19.52;8.93;;;;;;;20.92;58.94;101743.06;5088041;28;20051;-63
2021/06/15 08:40:42;;;;;;;13.38;7.93;;;;;;;21.21;58.40;101735.53;5088636;28;20094;-62
2021/06/15 08:43:10;;;;;;;16.10;7.93;;;;;;;21.21;58.00;101728.44;5087345;28;20067;-63
2021/06/15 08:45:38;;;;;;;14.95;7.47;;;;;;;21.17;58.42;101741.91;5083894;28;20044;-61
2021/06/15 08:48:05;;;;;;;14.32;8.57;;;;;;;20.94;59.54;101731.50;5089727;28;20520;-62
2021/06/15 08:50:32;;;;;;;22.98;8.75;;;;;;;21.13;59.41;101731.44;5084390;28;20441;-62
2021/06/15 08:52:58;;;;;;;11.88;8.10;;;;;;;21.26;59.10;101726.41;5089597;28;20582;-61
2021/06/15 08:55:29;;;;;;;15.48;7.47;;;;;;;21.38;58.92;101734.69;5090879;28;20071;-63
2021/06/15 08:58:08;;;;;;;14.32;8.27;;;;;;;21.55;58.70;101739.16;5093882;28;20048;-61
2021/06/15 09:00:36;;;;;;;17.70;8.05;;;;;;;21.74;58.25;101732.03;5092927;28;20048;-62
2021/06/15 09:03:02;;;;;;;19.13;8.43;;;;;;;22.03;57.26;101731.50;5096967;28;20066;-65
2021/06/15 09:05:28;;;;;;;19.00;8.45;;;;;;;22.10;56.13;101737.34;5094741;28;20175;-62
2021/06/15 09:08:06;;;;;;;14.68;8.93;;;;;;;21.98;56.63;101744.97;5092049;28;20819;-61
2021/06/15 09:10:35;;;;;;;16.88;7.82;;;;;;;21.75;56.96;101738.22;5093555;28;20044;-61
2021/06/15 09:13:02;;;;;;;16.90;7.30;;;;;;;21.58;57.25;101741.66;5092983;28;20058;-62
2021/06/15 09:15:29;;;;;;;14.65;6.88;;;;;;;21.71;56.70;101741.94;5092312;28;20524;-59
2021/06/15 09:17:57;;;;;;;12.98;7.22;;;;;;;21.81;55.98;101732.59;5093761;28;20610;-61
2021/06/15 09:20:26;;;;;;;14.85;7.50;;;;;;;21.86;55.47;101740.31;5092030;28;20040;-57
2021/06/15 09:23:04;;;;;;;15.15;7.55;;;;;;;21.86;56.62;101729.72;5089290;28;20044;-62
2021/06/15 09:25:33;;;;;;;14.05;6.78;;;;;;;21.61;56.49;101735.38;5098129;28;20065;-62
2021/06/15 09:28:00;;;;;;;14.77;6.88;;;;;;;21.42;56.37;101745.06;5092743;28;20040;-62
2021/06/15 09:30:29;;;;;;;13.63;6.93;;;;;;;21.62;56.13;101743.25;5092354;28;20046;-59
2021/06/15 09:33:10;;;;;;;13.75;7.65;;;;;;;21.52;58.06;101728.72;5093873;28;20052;-63
2021/06/15 09:35:36;;;;;;;15.43;7.13;;;;;;;21.78;56.60;101732.75;5084028;28;20527;-61
2021/06/15 09:38:03;;;;;;;12.20;6.03;;;;;;;21.66;55.54;101730.75;5086885;28;20040;-63
2021/06/15 09:40:32;;;;;;;14.18;6.68;;;;;;;21.48;57.04;101737.75;5093107;28;20512;-59
2021/06/15 09:43:02;;;;;;;15.98;8.23;;;;;;;21.73;56.49;101732.97;5092471;28;20546;-60
2021/06/15 09:45:31;;;;;;;12.30;6.72;;;;;;;21.84;56.09;101724.50;5085207;28;20110;-62
2021/06/15 09:48:25;;;;;;;19.13;6.95;;;;;;;21.64;56.41;101743.19;5086986;28;20119;-63
2021/06/15 09:50:53;;;;;;;15.10;6.97;;;;;;;21.90;56.41;101734.78;5088280;28;20048;-60
2021/06/15 09:53:27;;;;;;;11.23;6.15;;;;;;;22.03;55.69;101732.34;5090188;28;20040;-61
2021/06/15 09:55:54;;;;;;;11.20;6.05;;;;;;;21.83;54.18;101740.44;5092334;28;20051;-62
2021/06/15 09:58:42;;;;;;;12.27;5.00;;;;;;;21.89;53.74;101741.00;5096014;28;20060;-63
2021/06/15 10:01:08;;;;;;;9.98;4.30;;;;;;;21.85;54.29;101744.75;5092021;28;20063;-62
2021/06/15 10:03:36;;;;;;;13.43;5.95;;;;;;;21.94;53.50;101748.72;5089284;28;20068;-62
2021/06/15 10:06:03;;;;;;;11.35;4.68;;;;;;;22.24;54.16;101742.75;5092677;28;20071;-59
2021/06/15 10:08:43;;;;;;;9.68;5.00;;;;;;;22.48;53.28;101748.56;5092578;28;20051;-62
2021/06/15 10:11:09;;;;;;;13.75;5.43;;;;;;;22.64;52.73;101751.25;5093425;28;20046;-62
2021/06/15 10:13:36;;;;;;;8.68;4.10;;;;;;;22.88;51.40;101740.25;5094700;28;20040;-61
2021/06/15 10:16:03;;;;;;;8.80;3.30;;;;;;;22.72;48.69;101742.03;5087162;28;20561;-62
2021/06/15 10:18:31;;;;;;;8.35;3.60;;;;;;;22.62;50.18;101734.56;5090590;28;20074;-63
2021/06/15 10:20:59;;;;;;;7.43;2.90;;;;;;;22.72;48.19;101737.59;5094391;28;20048;-59
2021/06/15 10:23:25;;;;;;;7.50;3.45;;;;;;;22.71;49.03;101727.09;5092997;28;20059;-62
2021/06/15 10:25:52;;;;;;;12.77;4.70;;;;;;;22.84;49.33;101728.09;5091761;28;20047;-62
2021/06/15 10:28:20;;;;;;;6.50;3.17;;;;;;;23.03;48.03;101727.94;5091303;28;20052;-60
2021/06/15 10:30:48;;;;;;;7.63;2.95;;;;;;;23.05;47.40;101726.06;5087454;28;20454;-62
2021/06/15 10:33:16;;;;;;;6.55;2.35;;;;;;;23.12;42.12;101731.84;5094426;28;20044;-63
2021/06/15 10:35:46;;;;;;;5.40;2.20;;;;;;;23.01;45.67;101719.19;5094385;28;20056;-60
2021/06/15 10:38:19;;;;;;;7.22;2.40;;;;;;;23.05;46.26;101726.06;5093386;28;20505;-63
2021/06/15 10:40:52;;;;;;;7.93;1.60;;;;;;;23.09;42.60;101722.25;5095330;28;20048;-61
2021/06/15 10:43:22;;;;;;;8.57;2.15;;;;;;;22.86;46.56;101722.72;5090640;28;20059;-62
2021/06/15 10:45:52;;;;;;;8.25;3.25;;;;;;;22.68;48.18;101714.81;5089045;28;20048;-61
2021/06/15 10:48:41;;;;;;;6.20;2.60;;;;;;;22.79;48.57;101714.25;5094162;28;20044;-60
2021/06/15 10:51:44;;;;;;;10.00;2.67;;;;;;;22.83;45.92;101713.13;5088299;28;20052;-61
2021/06/15 10:54:40;;;;;;;6.47;1.88;;;;;;;23.04;44.74;101715.50;5089568;28;20052;-61
2021/06/15 10:57:27;;;;;;;6.72;2.17;;;;;;;22.88;41.35;101712.84;5090352;28;20480;-62
2021/06/15 11:00:08;;;;;;;6.40;1.92;;;;;;;22.97;43.68;101713.22;5089347;28;20401;-62
2021/06/15 11:02:35;;;;;;;10.35;2.40;;;;;;;22.75;45.88;101718.00;5094498;28;20485;-61
2021/06/15 11:05:39;;;;;;;8.98;2.80;;;;;;;22.85;44.54;101711.25;5084481;28;20051;-61
2021/06/15 11:08:22;;;;;;;5.03;1.80;;;;;;;22.95;43.93;101704.47;5085786;28;20059;-62
2021/06/15 11:10:54;;;;;;;8.60;1.60;;;;;;;23.04;41.46;101702.25;5080758;28;20051;-61
2021/06/15 11:13:40;;;;;;;7.63;1.45;;;;;;;23.25;41.69;101711.66;5078132;28;20110;-61
2021/06/15 11:16:06;;;;;;;5.82;2.03;;;;;;;23.15;42.40;101721.06;5082441;28;20117;-61
2021/06/15 11:18:33;;;;;;;8.43;2.22;;;;;;;23.24;41.72;101711.75;5083575;28;20453;-60
2021/06/15 11:21:16;;;;;;;6.45;1.60;;;;;;;23.06;41.63;101703.84;5082077;28;20139;-61
2021/06/15 11:23:42;;;;;;;4.03;1.40;;;;;;;23.18;41.78;101706.75;5081645;28;20063;-58
2021/06/15 11:26:15;;;;;;;7.20;1.60;;;;;;;23.20;41.48;101716.41;5087911;28;20455;-60
2021/06/15 11:28:44;;;;;;;6.20;1.35;;;;;;;23.40;41.72;101704.63;5085595;28;20425;-62